Time;durP1;ratioP1;P1;durP2;ratioP2;P2;SDS_P1;SDS_P2;PMS_P1;PMS_P2;Temp;Humidity;BMP_temperature;BMP_pressure;BME280_temperature;BME280_humidity;BME280_pressure;Samples;Min_cycle;Max_cycle;Signal;HPM_P1;HPM_P2
2023/01/03 00:00:47;;;;;;;5.68;3.50;;;6.50;81.80;;;;;;5132265;27;20035;-69
2023/01/03 00:03:15;;;;;;;7.07;3.75;;;6.50;81.80;;;;;;5131933;28;20042;-71
2023/01/03 00:05:46;;;;;;;7.75;3.05;;;6.40;81.90;;;;;;5098806;28;20390;-69
2023/01/03 00:08:12;;;;;;;5.57;2.83;;;6.40;82.00;;;;;;5132251;28;20039;-69
2023/01/03 00:10:38;;;;;;;9.57;4.97;;;6.40;82.00;;;;;;5131836;28;20035;-69
2023/01/03 00:13:04;;;;;;;6.88;4.07;;;6.40;82.00;;;;;;5115314;28;20039;-69
2023/01/03 00:15:32;;;;;;;6.75;3.47;;;6.40;82.00;;;;;;5131857;27;20401;-69
2023/01/03 00:17:58;;;;;;;7.93;3.55;;;6.40;82.00;;;;;;5131928;27;20501;-69
2023/01/03 00:20:24;;;;;;;7.60;3.45;;;6.40;82.10;;;;;;5131534;28;20055;-69
2023/01/03 00:22:49;;;;;;;7.20;3.38;;;6.40;82.10;;;;;;5115106;28;20039;-69
2023/01/03 00:25:15;;;;;;;5.40;3.15;;;6.30;82.10;;;;;;5131685;27;20042;-69
2023/01/03 00:27:41;;;;;;;7.25;3.70;;;6.40;82.20;;;;;;5114990;28;20043;-70
2023/01/03 00:30:07;;;;;;;6.18;3.42;;;6.30;82.10;;;;;;5131897;28;20177;-70
2023/01/03 00:32:33;;;;;;;5.85;3.05;;;6.40;82.20;;;;;;5131825;28;20418;-70
2023/01/03 00:34:58;;;;;;;4.30;2.53;;;6.30;82.10;;;;;;5132105;28;20047;-70
2023/01/03 00:37:24;;;;;;;7.70;3.42;;;6.30;82.10;;;;;;5131967;27;20047;-70
2023/01/03 00:39:50;;;;;;;5.05;2.97;;;6.30;82.20;;;;;;5135540;27;20043;-70
2023/01/03 00:42:15;;;;;;;7.05;3.42;;;6.30;82.20;;;;;;5135908;27;20092;-70
2023/01/03 00:44:41;;;;;;;5.40;3.67;;;6.20;82.20;;;;;;5135209;27;20037;-70
2023/01/03 00:47:07;;;;;;;7.22;3.33;;;6.30;82.20;;;;;;5135837;27;20071;-70
2023/01/03 00:49:32;;;;;;;6.65;3.22;;;6.20;82.20;;;;;;5135724;27;20041;-70
2023/01/03 00:51:58;;;;;;;8.90;3.90;;;6.20;82.20;;;;;;5135618;27;20066;-70
2023/01/03 00:54:24;;;;;;;6.95;3.53;;;6.20;82.20;;;;;;5135159;27;20047;-70
2023/01/03 00:56:50;;;;;;;6.82;3.85;;;6.20;82.20;;;;;;5135747;27;20039;-70
2023/01/03 00:59:17;;;;;;;7.32;4.13;;;6.10;82.20;;;;;;5118183;27;20031;-70
2023/01/03 01:01:52;;;;;;;7.13;3.80;;;6.10;82.20;;;;;;5135199;27;20043;-70
2023/01/03 01:04:29;;;;;;;6.50;4.18;;;6.10;82.30;;;;;;5135590;27;20091;-70
2023/01/03 01:07:02;;;;;;;7.55;4.15;;;6.10;82.30;;;;;;5135384;27;20043;-70
2023/01/03 01:09:34;;;;;;;9.00;4.35;;;6.10;82.30;;;;;;5118072;27;20035;-70
2023/01/03 01:12:00;;;;;;;8.32;5.43;;;6.10;82.30;;;;;;5135326;27;20043;-70
2023/01/03 01:14:28;;;;;;;9.10;5.20;;;6.10;82.30;;;;;;5134962;27;20039;-67
2023/01/03 01:16:57;;;;;;;10.93;4.88;;;6.00;82.20;;;;;;5135002;27;20045;-67
2023/01/03 01:19:30;;;;;;;7.38;4.75;;;6.10;82.30;;;;;;5135171;27;20495;-67
2023/01/03 01:21:56;;;;;;;7.35;5.30;;;6.00;82.60;;;;;;5117781;27;20039;-67
2023/01/03 01:24:22;;;;;;;8.40;5.70;;;6.00;82.30;;;;;;5135119;27;20386;-67
2023/01/03 01:26:48;;;;;;;8.50;5.18;;;6.00;82.30;;;;;;5134458;27;20386;-67
2023/01/03 01:29:15;;;;;;;12.23;6.32;;;6.00;82.30;;;;;;5117945;27;20032;-67
2023/01/03 01:31:41;;;;;;;11.52;7.38;;;6.00;82.40;;;;;;5134970;27;20121;-67
2023/01/03 01:34:07;;;;;;;10.45;6.65;;;6.00;82.40;;;;;;5133817;27;20088;-67
2023/01/03 01:36:38;;;;;;;8.60;6.22;;;6.00;82.40;;;;;;5135673;27;20103;-67
2023/01/03 01:39:07;;;;;;;9.00;6.18;;;6.00;82.50;;;;;;5134779;27;20469;-67
2023/01/03 01:44:44;;;;;;;12.52;7.07;;;5.90;82.50;;;;;;5132051;27;20126;-67
2023/01/03 01:47:47;;;;;;;11.57;6.88;;;5.90;82.50;;;;;;5134525;27;20039;-67
2023/01/03 01:50:19;;;;;;;11.65;7.10;;;5.90;82.50;;;;;;5133155;27;20043;-67
2023/01/03 01:53:00;;;;;;;9.32;7.18;;;5.90;82.60;;;;;;5134450;27;20043;-67
2023/01/03 01:55:30;;;;;;;10.52;7.45;;;5.90;82.70;;;;;;5134222;27;20050;-67
2023/01/03 01:57:56;;;;;;;11.25;7.60;;;5.90;82.70;;;;;;5134182;27;20067;-67
2023/01/03 02:00:22;;;;;;;11.13;8.07;;;5.90;82.70;;;;;;5134386;27;20043;-67
2023/01/03 02:02:51;;;;;;;9.80;7.18;;;5.90;82.70;;;;;;5134659;27;20385;-67
2023/01/03 02:05:18;;;;;;;11.15;7.70;;;5.80;82.60;;;;;;5134092;27;20031;-67
2023/01/03 02:07:48;;;;;;;10.88;7.00;;;5.90;82.70;;;;;;5134018;27;20062;-67
2023/01/03 02:10:14;;;;;;;9.90;7.10;;;5.80;82.70;;;;;;5134239;27;20051;-67
2023/01/03 02:13:22;;;;;;;10.82;7.50;;;5.80;82.70;;;;;;5133749;27;20073;-67
2023/01/03 02:15:47;;;;;;;9.90;6.78;;;5.80;82.70;;;;;;5111624;27;20118;-70
2023/01/03 02:18:38;;;;;;;12.18;7.72;;;5.80;82.80;;;;;;5133676;27;20134;-70
2023/01/03 02:21:39;;;;;;;10.57;7.30;;;5.80;82.90;;;;;;5133992;27;20047;-70
2023/01/03 02:24:29;;;;;;;12.70;8.10;;;5.80;82.70;;;;;;5034185;28;20227;-70
2023/01/03 02:27:03;;;;;;;9.60;7.22;;;5.70;82.80;;;;;;5129212;27;20050;-70
2023/01/03 02:29:44;;;;;;;;;;;5.70;82.80;;;;;;5134118;27;20039;-70
2023/01/03 02:32:39;;;;;;;13.40;7.88;;;5.70;82.60;;;;;;5133992;27;19915;-71
2023/01/03 02:35:23;;;;;;;12.77;8.73;;;5.70;82.80;;;;;;5124601;27;20401;-70
2023/01/03 02:37:57;;;;;;;11.63;7.88;;;5.70;82.80;;;;;;5133416;27;20542;-70
2023/01/03 02:40:48;;;;;;;11.43;7.93;;;5.70;82.80;;;;;;5132894;27;20058;-70
2023/01/03 02:43:45;;;;;;;12.68;8.07;;;5.70;82.80;;;;;;5133401;27;20524;-69
2023/01/03 02:46:25;;;;;;;13.02;8.82;;;5.70;82.90;;;;;;5100302;28;20165;-70
2023/01/03 02:49:05;;;;;;;16.98;10.50;;;5.70;83.00;;;;;;5113003;28;20043;-69
2023/01/03 02:51:36;;;;;;;14.07;9.25;;;5.70;82.90;;;;;;5113104;28;20035;-69
2023/01/03 02:54:06;;;;;;;17.15;9.55;;;5.60;82.80;;;;;;5130661;27;20316;-70
2023/01/03 02:56:57;;;;;;;15.07;10.82;;;5.60;82.90;;;;;;5132952;27;20051;-70
2023/01/03 02:59:37;;;;;;;13.70;9.25;;;5.60;82.90;;;;;;5133098;27;20043;-68
2023/01/03 03:02:05;;;;;;;13.63;10.43;;;5.60;82.90;;;;;;5132615;27;20045;-67
2023/01/03 03:04:33;;;;;;;13.05;9.52;;;5.60;82.90;;;;;;5132891;27;20115;-67
2023/01/03 03:07:08;;;;;;;14.65;10.15;;;5.60;83.00;;;;;;5134445;27;20394;-67
2023/01/03 03:13:11;;;;;;;16.88;10.45;;;5.60;83.00;;;;;;5112491;28;20085;-67
2023/01/03 03:15:09;;;;;;;17.85;10.90;;;5.60;83.10;;;;;;5129241;27;20050;-67
2023/01/03 03:17:38;;;;;;;16.45;9.95;;;5.60;83.00;;;;;;5134147;27;20126;-67
2023/01/03 03:25:55;;;;;;;16.60;10.82;;;5.60;83.10;;;;;;5132479;27;20096;-67
2023/01/03 03:28:35;;;;;;;15.68;11.23;;;5.60;83.10;;;;;;5132772;27;20100;-67
2023/01/03 03:31:13;;;;;;;14.75;11.23;;;5.60;83.10;;;;;;5132044;27;20046;-67
2023/01/03 03:33:55;;;;;;;18.27;12.43;;;5.50;83.20;;;;;;5131920;27;20039;-67
2023/01/03 03:36:42;;;;;;;18.80;12.70;;;5.50;83.20;;;;;;5129560;27;20450;-66
2023/01/03 03:44:59;;;;;;;20.58;12.07;;;5.60;83.30;;;;;;5095108;28;20043;-66
2023/01/03 03:44:59;;;;;;;19.75;11.98;;;5.50;83.20;;;;;;5132160;27;20095;-67
2023/01/03 03:47:28;;;;;;;16.90;12.27;;;5.50;83.30;;;;;;5131881;27;20035;-67
2023/01/03 03:49:58;;;;;;;19.27;12.27;;;5.50;83.20;;;;;;5132534;27;20409;-66
2023/01/03 03:52:28;;;;;;;20.38;14.27;;;5.50;83.30;;;;;;5132330;27;20043;-66
2023/01/03 03:55:02;;;;;;;18.77;13.55;;;5.50;83.30;;;;;;5132474;27;20518;-67
2023/01/03 03:57:33;;;;;;;21.90;14.43;;;5.50;83.30;;;;;;5132334;27;20043;-67
2023/01/03 04:00:04;;;;;;;20.35;13.80;;;5.50;83.30;;;;;;5132368;28;20061;-67
2023/01/03 04:02:33;;;;;;;21.40;14.10;;;5.50;83.40;;;;;;5132278;27;20043;-67
2023/01/03 04:05:04;;;;;;;19.85;14.13;;;5.50;83.30;;;;;;5131405;27;20039;-67
2023/01/03 04:07:30;;;;;;;22.10;13.52;;;5.50;83.30;;;;;;5132302;28;20042;-67
2023/01/03 04:09:56;;;;;;;21.17;13.25;;;5.40;83.30;;;;;;5131960;28;20046;-67
2023/01/03 04:12:22;;;;;;;21.67;13.75;;;5.40;83.30;;;;;;5132216;27;20043;-67
2023/01/03 04:14:47;;;;;;;22.60;14.90;;;5.50;83.40;;;;;;5118716;27;20130;-67
2023/01/03 04:17:13;;;;;;;21.63;15.18;;;5.40;83.40;;;;;;5136151;27;20440;-67
2023/01/03 04:19:39;;;;;;;23.83;15.57;;;5.40;83.40;;;;;;5136141;27;20086;-67
2023/01/03 04:22:04;;;;;;;19.23;14.35;;;5.50;83.50;;;;;;5153633;27;20122;-67
2023/01/03 04:24:30;;;;;;;20.60;15.55;;;5.50;83.50;;;;;;5118800;27;20053;-68
2023/01/03 04:26:56;;;;;;;22.98;16.05;;;5.40;83.40;;;;;;5119363;27;20031;-68
2023/01/03 04:29:22;;;;;;;21.88;14.73;;;5.40;83.40;;;;;;5153474;27;20039;-68
2023/01/03 04:31:47;;;;;;;20.67;14.00;;;5.50;83.40;;;;;;5152722;27;20040;-68
2023/01/03 04:34:13;;;;;;;21.90;15.80;;;5.50;83.40;;;;;;5144982;27;20470;-68
2023/01/03 04:36:39;;;;;;;22.20;14.88;;;5.40;83.30;;;;;;5133083;27;20394;-66
2023/01/03 04:39:04;;;;;;;22.15;14.85;;;5.40;83.30;;;;;;5152846;27;20035;-67
2023/01/03 04:41:30;;;;;;;22.30;15.45;;;5.50;83.30;;;;;;5118998;27;20047;-67
2023/01/03 04:44:02;;;;;;;21.88;14.18;;;5.50;83.30;;;;;;5124126;27;20039;-67
2023/01/03 04:46:29;;;;;;;24.67;15.95;;;5.40;83.20;;;;;;5119116;27;20039;-67
2023/01/03 04:48:55;;;;;;;21.65;14.73;;;5.50;83.30;;;;;;5135718;27;20039;-67
2023/01/03 04:51:21;;;;;;;24.48;16.10;;;5.50;83.30;;;;;;5118579;27;20061;-67
2023/01/03 04:53:47;;;;;;;23.75;16.10;;;5.40;83.10;;;;;;5135149;27;20031;-67
2023/01/03 04:56:12;;;;;;;21.27;15.40;;;5.50;83.10;;;;;;5135723;27;20046;-67
2023/01/03 04:58:38;;;;;;;22.83;15.20;;;5.40;83.00;;;;;;5135234;27;20031;-70
2023/01/03 05:01:06;;;;;;;24.35;16.65;;;5.40;82.90;;;;;;5135264;27;20068;-70
2023/01/03 05:03:33;;;;;;;23.08;16.77;;;5.50;83.00;;;;;;5134971;27;20034;-70
2023/01/03 05:06:00;;;;;;;20.40;14.65;;;5.40;82.90;;;;;;5135594;27;20035;-70
2023/01/03 05:08:26;;;;;;;23.90;15.80;;;5.40;82.90;;;;;;5135693;27;20427;-69
2023/01/03 05:10:52;;;;;;;21.67;16.48;;;5.40;82.90;;;;;;5133527;27;20043;-69
2023/01/03 05:13:18;;;;;;;24.45;15.88;;;5.40;82.80;;;;;;5132898;27;20038;-69
2023/01/03 05:15:44;;;;;;;21.85;15.68;;;5.40;82.80;;;;;;5135316;27;20394;-69
2023/01/03 05:18:10;;;;;;;21.88;15.75;;;5.40;82.80;;;;;;5118213;27;20077;-69
2023/01/03 05:26:17;;;;;;;20.30;15.35;;;5.30;82.70;;;;;;5134608;27;20096;-70
2023/01/03 05:28:48;;;;;;;24.17;16.30;;;5.30;82.70;;;;;;5136403;27;20046;-70
2023/01/03 05:31:14;;;;;;;21.15;14.40;;;5.30;82.70;;;;;;5134984;27;20497;-70
2023/01/03 05:33:40;;;;;;;20.35;14.77;;;5.30;82.60;;;;;;5145989;27;20046;-70
2023/01/03 05:36:07;;;;;;;18.98;14.80;;;5.30;82.50;;;;;;5135046;27;20552;-70
2023/01/03 05:38:33;;;;;;;18.83;13.95;;;5.30;82.50;;;;;;5117776;27;20039;-70
2023/01/03 05:40:59;;;;;;;20.98;15.40;;;5.20;82.50;;;;;;5146913;27;20093;-69
2023/01/03 05:43:24;;;;;;;21.42;15.73;;;5.30;82.60;;;;;;5114975;27;20035;-69
2023/01/03 05:45:51;;;;;;;19.40;13.52;;;5.20;82.50;;;;;;5134842;27;20172;-69
2023/01/03 05:48:18;;;;;;;20.90;14.20;;;5.20;82.50;;;;;;5117405;27;20478;-69
2023/01/03 05:50:44;;;;;;;23.83;14.77;;;5.20;82.60;;;;;;5134877;27;20394;-66
2023/01/03 05:53:10;;;;;;;20.58;15.27;;;5.20;82.60;;;;;;5117333;27;20039;-67
2023/01/03 05:55:37;;;;;;;20.67;14.75;;;5.20;82.60;;;;;;5134379;27;20524;-67
2023/01/03 05:58:03;;;;;;;20.45;14.82;;;5.20;82.60;;;;;;5134472;27;20036;-67
2023/01/03 06:00:29;;;;;;;20.60;14.77;;;5.10;82.60;;;;;;5133835;27;20084;-67
2023/01/03 06:02:55;;;;;;;22.33;15.02;;;5.20;82.60;;;;;;5134085;27;20043;-67
2023/01/03 06:05:21;;;;;;;18.88;13.73;;;5.10;82.60;;;;;;5117176;27;20031;-67
2023/01/03 06:07:47;;;;;;;18.92;14.07;;;5.10;82.60;;;;;;5100421;27;20100;-67
2023/01/03 06:10:12;;;;;;;17.38;13.02;;;5.10;82.50;;;;;;5134466;27;20078;-67
2023/01/03 06:12:38;;;;;;;18.30;13.75;;;5.20;82.50;;;;;;5134230;27;20506;-67
2023/01/03 06:15:05;;;;;;;19.90;13.43;;;5.10;82.30;;;;;;5137795;27;20555;-67
2023/01/03 06:20:14;;;;;;;20.13;13.13;;;5.00;82.20;;;;;;5119333;27;20042;-70
2023/01/03 06:22:40;;;;;;;19.38;12.90;;;5.00;82.20;;;;;;5133797;27;20035;-70
2023/01/03 06:25:06;;;;;;;17.67;12.80;;;5.00;82.20;;;;;;5134227;27;20089;-70
2023/01/03 06:27:32;;;;;;;19.80;13.52;;;5.00;82.20;;;;;;5133562;27;20046;-70
2023/01/03 06:29:58;;;;;;;18.60;12.85;;;5.00;82.30;;;;;;5113367;27;20407;-70
2023/01/03 06:32:24;;;;;;;19.58;13.35;;;5.00;82.30;;;;;;5144513;27;20089;-70
2023/01/03 06:34:50;;;;;;;16.90;12.70;;;5.00;82.20;;;;;;5133480;27;20074;-70
2023/01/03 06:37:16;;;;;;;23.05;14.02;;;4.90;81.90;;;;;;5115425;27;20074;-70
2023/01/03 06:39:41;;;;;;;21.08;14.13;;;4.90;81.70;;;;;;5133449;27;20035;-70
2023/01/03 06:53:14;;;;;;;17.45;13.13;;;4.70;81.50;;;;;;5130223;27;20054;-70
2023/01/03 06:55:41;;;;;;;16.75;13.32;;;4.70;81.60;;;;;;5131112;27;20039;-70
2023/01/03 06:58:07;;;;;;;19.00;13.63;;;4.70;81.70;;;;;;5133042;27;20039;-70
2023/01/03 07:00:35;;;;;;;19.45;14.77;;;4.70;81.70;;;;;;5133310;27;20049;-70
2023/01/03 07:03:01;;;;;;;21.63;16.35;;;4.70;81.80;;;;;;5116380;27;20043;-70
2023/01/03 07:05:27;;;;;;;21.00;14.98;;;4.60;81.70;;;;;;5150129;27;20033;-69
2023/01/03 07:07:52;;;;;;;20.60;14.27;;;4.60;81.70;;;;;;5126941;27;20053;-70
2023/01/03 07:10:18;;;;;;;18.67;15.15;;;4.60;81.70;;;;;;5112951;27;20051;-70
2023/01/03 07:15:28;;;;;;;42.25;13.18;;;4.60;81.30;;;;;;5112464;28;20100;-70
2023/01/03 07:17:54;;;;;;;15.75;12.35;;;4.50;81.00;;;;;;5112534;28;20056;-70
2023/01/03 07:20:20;;;;;;;15.90;11.98;;;4.40;80.90;;;;;;5112096;28;20063;-69
2023/01/03 07:22:46;;;;;;;21.48;12.07;;;4.40;80.80;;;;;;5112210;28;20079;-69
2023/01/03 07:25:12;;;;;;;23.98;11.63;;;4.30;80.70;;;;;;5129236;27;20074;-69
2023/01/03 07:27:38;;;;;;;15.73;13.02;;;4.30;80.80;;;;;;5104312;28;20054;-69
2023/01/03 07:30:04;;;;;;;16.25;12.65;;;4.30;80.80;;;;;;5132246;27;20096;-69
2023/01/03 07:32:29;;;;;;;30.55;12.50;;;4.20;80.80;;;;;;5132601;27;20134;-69
2023/01/03 07:34:55;;;;;;;13.98;11.50;;;4.20;80.90;;;;;;5149841;27;20081;-70
2023/01/03 07:37:21;;;;;;;28.38;12.52;;;4.20;81.00;;;;;;5149845;27;20039;-70
2023/01/03 07:39:46;;;;;;;29.35;13.35;;;4.20;81.20;;;;;;5150078;27;20091;-70
2023/01/03 07:44:56;;;;;;;23.52;13.32;;;4.10;81.30;;;;;;5132458;27;20051;-70
2023/01/03 07:47:22;;;;;;;21.75;12.80;;;4.10;81.60;;;;;;5133075;27;20046;-70
2023/01/03 07:49:48;;;;;;;45.40;14.63;;;4.00;81.80;;;;;;5149409;27;20088;-70
2023/01/03 07:52:13;;;;;;;26.23;13.77;;;4.00;81.90;;;;;;5115589;28;20071;-70
2023/01/03 07:54:39;;;;;;;18.27;13.63;;;4.10;82.00;;;;;;5149917;27;20050;-69
2023/01/03 07:57:05;;;;;;;24.98;15.18;;;4.00;82.10;;;;;;5131561;27;20045;-69
2023/01/03 07:59:30;;;;;;;25.63;14.13;;;4.00;82.30;;;;;;5149833;27;20470;-69
2023/01/03 08:01:56;;;;;;;22.67;15.07;;;4.10;82.60;;;;;;5132887;27;20429;-70
2023/01/03 08:04:22;;;;;;;51.03;17.02;;;4.10;82.70;;;;;;5111875;28;20066;-70
2023/01/03 08:06:47;;;;;;;30.83;15.25;;;4.00;82.70;;;;;;5114977;27;20039;-70
2023/01/03 08:14:41;;;;;;;33.60;16.30;;;4.00;82.90;;;;;;5131777;28;20058;-70
2023/01/03 08:17:07;;;;;;;39.28;16.98;;;4.00;83.10;;;;;;5147608;27;20035;-69
2023/01/03 08:19:32;;;;;;;24.45;16.48;;;4.00;83.30;;;;;;5131703;28;20043;-69
2023/01/03 08:21:58;;;;;;;22.45;15.25;;;4.00;83.50;;;;;;5149265;27;20047;-70
2023/01/03 08:24:24;;;;;;;25.40;15.90;;;4.00;83.70;;;;;;5148059;27;20040;-69
2023/01/03 08:26:50;;;;;;;30.55;18.15;;;4.00;83.80;;;;;;5135591;27;20114;-70
2023/01/03 08:29:16;;;;;;;40.22;21.10;;;4.00;84.00;;;;;;5115265;28;20039;-70
2023/01/03 08:31:47;;;;;;;36.50;19.70;;;4.10;84.10;;;;;;5132028;27;20104;-70
2023/01/03 08:34:13;;;;;;;39.05;21.88;;;4.10;84.20;;;;;;5132046;27;20478;-70
2023/01/03 08:36:45;;;;;;;39.90;22.17;;;4.10;84.20;;;;;;5115020;28;20049;-70
2023/01/03 08:39:18;;;;;;;41.47;24.20;;;4.10;84.40;;;;;;5132074;28;20066;-70
2023/01/03 08:41:47;;;;;;;49.10;24.52;;;4.10;84.50;;;;;;5131967;28;20049;-67
2023/01/03 08:44:14;;;;;;;53.55;25.50;;;4.10;84.60;;;;;;5132036;28;20036;-67
2023/01/03 08:46:47;;;;;;;44.42;24.95;;;4.20;84.80;;;;;;5115259;28;20039;-67
2023/01/03 08:49:13;;;;;;;54.20;28.73;;;4.20;85.00;;;;;;5138863;27;20089;-67
2023/01/03 08:51:38;;;;;;;49.42;27.80;;;4.20;85.10;;;;;;5146403;27;20066;-67
2023/01/03 08:54:04;;;;;;;63.22;30.75;;;4.30;85.30;;;;;;5129807;27;20074;-67
2023/01/03 08:56:30;;;;;;;64.75;30.15;;;4.30;85.40;;;;;;5144924;27;20046;-67
2023/01/03 08:58:59;;;;;;;55.63;28.50;;;4.40;85.70;;;;;;5146852;27;20062;-67
2023/01/03 09:01:25;;;;;;;67.75;30.90;;;4.40;85.80;;;;;;5150887;27;21699;-67
2023/01/03 09:03:50;;;;;;;62.70;31.58;;;4.40;86.00;;;;;;5148839;27;20085;-68
2023/01/03 09:06:17;;;;;;;72.22;34.15;;;4.40;86.10;;;;;;5130866;27;20074;-65
2023/01/03 09:08:42;;;;;;;67.45;32.08;;;4.50;86.20;;;;;;5130799;27;20125;-65
2023/01/03 09:11:09;;;;;;;72.85;32.78;;;4.60;86.40;;;;;;5149260;27;20437;-65
2023/01/03 09:13:35;;;;;;;73.47;33.47;;;4.60;86.50;;;;;;5149743;27;20042;-65
2023/01/03 09:16:09;;;;;;;64.88;32.72;;;4.60;86.60;;;;;;5149803;27;20509;-66
2023/01/03 09:18:36;;;;;;;73.55;33.60;;;4.70;86.80;;;;;;5132496;27;20080;-66
2023/01/03 09:21:02;;;;;;;71.60;34.95;;;4.70;86.80;;;;;;5132131;27;20454;-66
2023/01/03 09:23:29;;;;;;;87.05;36.53;;;4.70;86.90;;;;;;5148051;27;20039;-66
2023/01/03 09:25:54;;;;;;;76.10;35.97;;;4.80;87.00;;;;;;5150690;27;20038;-66
2023/01/03 09:28:20;;;;;;;75.00;37.67;;;4.80;87.00;;;;;;5147289;27;20099;-67
2023/01/03 09:30:46;;;;;;;81.97;38.00;;;4.90;87.20;;;;;;5149280;27;20406;-66
2023/01/03 09:33:12;;;;;;;83.50;38.50;;;4.90;87.20;;;;;;5131605;27;20522;-66
2023/01/03 09:35:38;;;;;;;82.88;39.75;;;4.90;87.30;;;;;;5131645;27;20113;-67
2023/01/03 09:38:04;;;;;;;75.65;36.53;;;5.00;87.40;;;;;;5132710;27;20039;-66
2023/01/03 09:40:31;;;;;;;79.10;37.80;;;5.00;87.50;;;;;;5148697;27;20041;-66
2023/01/03 09:43:12;;;;;;;86.25;38.70;;;5.00;87.50;;;;;;5149029;27;20046;-66
2023/01/03 09:45:44;;;;;;;79.43;38.97;;;5.10;87.70;;;;;;5150151;27;20103;-66
2023/01/03 09:48:20;;;;;;;87.45;38.88;;;5.10;87.70;;;;;;5150142;27;20066;-66
2023/01/03 09:50:46;;;;;;;70.55;37.63;;;5.20;87.90;;;;;;5149754;27;20067;-66
2023/01/03 10:05:29;;;;;;;76.60;36.58;;;5.40;88.10;;;;;;5155595;27;20062;-66
2023/01/03 10:08:30;;;;;;;75.33;36.90;;;5.40;88.10;;;;;;5138038;27;20057;-66
2023/01/03 10:11:07;;;;;;;70.80;36.05;;;5.40;88.10;;;;;;5118778;27;20276;-66
2023/01/03 10:13:44;;;;;;;73.28;36.83;;;5.50;88.10;;;;;;5155185;27;20046;-66
2023/01/03 10:16:22;;;;;;;75.57;37.70;;;5.50;88.10;;;;;;5134618;27;20418;-66
2023/01/03 10:19:06;;;;;;;77.00;37.58;;;5.60;88.30;;;;;;5139457;27;20552;-66
2023/01/03 10:21:49;;;;;;;71.05;36.40;;;5.60;88.30;;;;;;5117202;27;20047;-66
2023/01/03 10:24:23;;;;;;;64.00;33.83;;;5.70;88.50;;;;;;5134246;27;20035;-66
2023/01/03 10:27:02;;;;;;;72.93;37.13;;;5.70;88.60;;;;;;5134194;27;20031;-66
2023/01/03 10:29:28;;;;;;;70.18;34.78;;;5.80;89.00;;;;;;5133908;27;20031;-66
2023/01/03 10:32:15;;;;;;;66.28;35.65;;;5.80;88.70;;;;;;5133555;27;20424;-66
2023/01/03 10:34:40;;;;;;;69.93;35.78;;;5.90;88.80;;;;;;5133976;27;20043;-66
2023/01/03 10:37:17;;;;;;;59.78;33.70;;;5.90;88.70;;;;;;5150684;27;20047;-67
2023/01/03 10:39:43;;;;;;;57.08;32.33;;;5.90;88.80;;;;;;5133837;27;20039;-66
2023/01/03 10:42:17;;;;;;;52.97;30.90;;;6.00;88.80;;;;;;5133826;27;20047;-66
2023/01/03 10:45:00;;;;;;;55.40;31.00;;;6.00;88.80;;;;;;5133757;27;20055;-66
2023/01/03 10:47:26;;;;;;;57.63;31.50;;;6.10;88.90;;;;;;5119318;27;20516;-66
2023/01/03 10:50:01;;;;;;;57.95;31.30;;;6.10;88.80;;;;;;5133996;27;20111;-66
2023/01/03 10:52:49;;;;;;;51.85;30.90;;;6.20;88.90;;;;;;5133578;27;20035;-66
2023/01/03 10:55:17;;;;;;;51.92;30.77;;;6.20;88.90;;;;;;5133652;27;20043;-66
2023/01/03 10:57:51;;;;;;;48.78;29.85;;;6.30;88.80;;;;;;5133252;27;20039;-66
2023/01/03 11:00:28;;;;;;;52.97;29.48;;;6.30;88.80;;;;;;5133599;27;20099;-66
2023/01/03 11:03:00;;;;;;;48.75;29.27;;;6.30;88.80;;;;;;5121821;27;20041;-66
2023/01/03 11:05:26;;;;;;;48.58;29.10;;;6.30;88.80;;;;;;5132581;27;20045;-66
2023/01/03 11:07:58;;;;;;;43.97;27.42;;;6.40;88.80;;;;;;5114864;27;20043;-66
2023/01/03 11:10:32;;;;;;;41.55;26.65;;;6.40;88.80;;;;;;5132944;27;20042;-66
2023/01/03 11:12:58;;;;;;;47.35;24.90;;;6.50;88.90;;;;;;5130079;27;20039;-66
2023/01/03 11:15:29;;;;;;;39.75;24.67;;;6.50;88.80;;;;;;5115038;27;20088;-66
2023/01/03 11:18:04;;;;;;;38.45;24.98;;;6.50;88.90;;;;;;5142110;27;20108;-66
2023/01/03 11:21:08;;;;;;;38.80;24.63;;;6.60;88.90;;;;;;5121323;27;20046;-66
2023/01/03 11:23:43;;;;;;;43.13;24.75;;;6.60;88.90;;;;;;5099704;27;20138;-66
2023/01/03 11:26:33;;;;;;;34.13;22.05;;;6.70;88.90;;;;;;5146679;27;20045;-66
2023/01/03 11:29:20;;;;;;;33.83;22.55;;;6.70;88.90;;;;;;5144720;27;20035;-66
2023/01/03 11:31:57;;;;;;;37.22;22.23;;;6.70;88.90;;;;;;5122896;27;20043;-66
2023/01/03 11:34:40;;;;;;;39.65;22.80;;;6.80;88.90;;;;;;5131748;27;20039;-66
2023/01/03 11:37:26;;;;;;;34.80;22.08;;;6.80;88.80;;;;;;5132774;27;20130;-66
2023/01/03 11:40:13;;;;;;;33.45;20.67;;;6.80;88.80;;;;;;5131947;27;20054;-66
2023/01/03 11:43:16;;;;;;;32.47;20.25;;;6.90;88.70;;;;;;5132363;27;20046;-66
2023/01/03 11:46:00;;;;;;;31.00;20.85;;;6.90;88.60;;;;;;5133872;27;20035;-66
2023/01/03 11:48:46;;;;;;;35.08;21.08;;;6.90;88.50;;;;;;5132305;27;20035;-66
2023/01/03 11:51:35;;;;;;;32.75;20.58;;;6.90;88.50;;;;;;5127995;27;20060;-66
2023/01/03 11:54:02;;;;;;;30.25;18.70;;;7.00;88.40;;;;;;5131963;27;20038;-66
2023/01/03 11:56:29;;;;;;;31.88;19.63;;;7.00;88.40;;;;;;5114867;28;20363;-66
2023/01/03 11:59:20;;;;;;;29.13;19.13;;;7.00;88.30;;;;;;5138999;27;20043;-66
2023/01/03 12:02:10;;;;;;;28.92;19.23;;;7.10;88.40;;;;;;5139806;27;20063;-66
2023/01/03 12:05:16;;;;;;;28.13;19.10;;;7.10;88.30;;;;;;5145143;27;20130;-66
2023/01/03 12:08:02;;;;;;;29.40;19.02;;;7.10;88.50;;;;;;5143933;27;20391;-67
2023/01/03 12:10:47;;;;;;;31.40;20.30;;;7.10;88.30;;;;;;5129904;27;20039;-66
2023/01/03 12:13:26;;;;;;;31.40;18.63;;;7.20;88.30;;;;;;5142805;27;20043;-67
2023/01/03 12:16:03;;;;;;;33.72;18.58;;;7.20;88.10;;;;;;5144588;27;20046;-66
2023/01/03 12:18:38;;;;;;;34.80;19.58;;;7.20;88.10;;;;;;5143387;27;20138;-67
2023/01/03 12:21:24;;;;;;;31.17;18.10;;;7.20;88.10;;;;;;5127970;27;20138;-67
2023/01/03 12:24:17;;;;;;;29.92;18.70;;;7.20;88.10;;;;;;5143030;27;20078;-67
2023/01/03 12:26:50;;;;;;;31.88;18.58;;;7.20;88.00;;;;;;5145461;27;20039;-67
2023/01/03 12:29:25;;;;;;;30.40;18.42;;;7.20;88.00;;;;;;5145798;27;20042;-67
2023/01/03 12:32:00;;;;;;;33.30;18.77;;;7.30;88.00;;;;;;5141974;27;20035;-67
2023/01/03 12:34:50;;;;;;;28.92;17.58;;;7.30;88.00;;;;;;5143005;27;20050;-67
2023/01/03 12:37:19;;;;;;;31.58;18.13;;;7.40;88.00;;;;;;5144795;27;20043;-67
2023/01/03 12:39:55;;;;;;;26.63;17.25;;;7.40;88.00;;;;;;5145923;27;20492;-67
2023/01/03 12:42:38;;;;;;;28.65;17.58;;;7.40;87.90;;;;;;5146599;27;20041;-67
2023/01/03 12:45:18;;;;;;;27.77;17.25;;;7.40;88.00;;;;;;5145577;27;20038;-67
2023/01/03 12:47:55;;;;;;;27.48;16.20;;;7.40;87.90;;;;;;5123255;27;20047;-66
2023/01/03 12:50:54;;;;;;;27.80;18.08;;;7.40;87.80;;;;;;5148125;27;20125;-67
2023/01/03 12:53:48;;;;;;;28.98;17.27;;;7.50;87.80;;;;;;5100619;27;20103;-67
2023/01/03 12:56:20;;;;;;;25.52;15.98;;;7.50;87.90;;;;;;5106692;27;20129;-66
2023/01/03 12:59:43;;;;;;;26.35;16.63;;;7.50;87.90;;;;;;5131329;27;20039;-67
2023/01/03 13:02:42;;;;;;;26.92;16.38;;;7.50;87.90;;;;;;5056725;28;20044;-67
2023/01/03 13:05:28;;;;;;;26.75;16.05;;;7.60;87.90;;;;;;5047599;28;20139;-66
2023/01/03 13:08:18;;;;;;;23.73;15.07;;;7.60;87.90;;;;;;5129932;27;20565;-67
2023/01/03 13:10:49;;;;;;;25.20;14.55;;;7.60;87.90;;;;;;5147912;27;20074;-67
2023/01/03 13:13:18;;;;;;;25.48;15.55;;;7.60;87.90;;;;;;5144216;27;20054;-67
2023/01/03 13:15:45;;;;;;;24.23;15.45;;;7.60;87.90;;;;;;5133003;27;20039;-66
2023/01/03 13:18:32;;;;;;;25.23;16.02;;;7.70;87.90;;;;;;5146099;27;20043;-67
2023/01/03 13:20:59;;;;;;;24.73;15.50;;;7.70;88.00;;;;;;5145777;27;20059;-67
2023/01/03 13:23:46;;;;;;;27.67;17.45;;;7.70;87.90;;;;;;5144205;27;20046;-67
2023/01/03 13:26:18;;;;;;;26.27;16.30;;;7.70;88.00;;;;;;5146174;27;20422;-67
2023/01/03 13:28:44;;;;;;;21.58;14.77;;;7.70;87.90;;;;;;5127960;27;20042;-67
2023/01/03 13:31:18;;;;;;;25.40;15.70;;;7.80;87.90;;;;;;5147752;27;20051;-67
2023/01/03 13:33:47;;;;;;;;;;;7.70;87.80;;;;;;5145730;27;20042;-67
2023/01/03 13:36:14;;;;;;;26.13;15.35;;;7.70;87.50;;;;;;5129678;27;19919;-67
2023/01/03 13:38:40;;;;;;;25.58;16.10;;;7.80;87.80;;;;;;5129872;27;20133;-67
2023/01/03 13:41:26;;;;;;;23.17;15.90;;;7.80;87.70;;;;;;5147226;27;20070;-67
2023/01/03 13:43:53;;;;;;;26.75;16.63;;;7.80;87.70;;;;;;5143299;27;20038;-67
2023/01/03 13:46:23;;;;;;;22.73;15.13;;;7.90;87.70;;;;;;5147469;27;20099;-67
2023/01/03 13:49:02;;;;;;;24.33;15.75;;;7.90;87.70;;;;;;5145901;27;20084;-67
2023/01/03 13:51:46;;;;;;;23.05;14.98;;;7.90;87.80;;;;;;5147241;27;20138;-67
2023/01/03 13:54:11;;;;;;;22.27;15.02;;;7.90;87.70;;;;;;5145513;27;20046;-67
2023/01/03 13:56:43;;;;;;;21.00;14.05;;;7.90;87.90;;;;;;5128637;27;20038;-67
2023/01/03 13:59:18;;;;;;;25.85;16.02;;;7.90;88.00;;;;;;5146694;27;20118;-70
2023/01/03 14:02:02;;;;;;;;;;;7.90;87.60;;;;;;5152886;27;20043;-67